Time;durP1;ratioP1;P1;durP2;ratioP2;P2;SDS_P1;SDS_P2;PMS_P1;PMS_P2;Temp;Humidity;BMP_temperature;BMP_pressure;BME280_temperature;BME280_humidity;BME280_pressure;Samples;Min_cycle;Max_cycle;Signal;HPM_P1;HPM_P2
2023/09/14 00:02:06;;;;;;;;;;;11.30;99.90;;;;;;5137551;27;19922;-42
2023/09/14 00:04:31;;;;;;;;;;;11.30;99.90;;;;;;5137431;27;19907;-43
2023/09/14 00:06:57;;;;;;;;;;;11.40;99.90;;;;;;5137400;27;19918;-42
2023/09/14 00:09:23;;;;;;;;;;;11.40;99.90;;;;;;5137466;27;20002;-42
2023/09/14 00:11:48;;;;;;;;;;;11.30;99.90;;;;;;5137426;27;20327;-42
2023/09/14 00:14:14;;;;;;;;;;;11.40;99.90;;;;;;5137304;27;19914;-43
2023/09/14 00:16:39;;;;;;;;;;;11.40;99.90;;;;;;5137340;27;19934;-42
2023/09/14 00:19:05;;;;;;;;;;;11.40;99.90;;;;;;5147068;27;20404;-44
2023/09/14 00:21:31;;;;;;;;;;;11.40;99.90;;;;;;5157599;27;19991;-41
2023/09/14 00:23:56;;;;;;;;;;;11.30;99.90;;;;;;5157933;27;20057;-42
2023/09/14 00:26:22;;;;;;;;;;;11.30;99.90;;;;;;5157810;27;19907;-42
2023/09/14 00:28:47;;;;;;;;;;;11.30;99.90;;;;;;5157701;27;19934;-45
2023/09/14 00:31:12;;;;;;;;;;;11.30;99.90;;;;;;5157508;27;19915;-42
2023/09/14 00:33:38;;;;;;;;;;;11.30;99.90;;;;;;5157746;27;19913;-40
2023/09/14 00:36:04;;;;;;;;;;;11.30;99.90;;;;;;5157697;27;19907;-41
2023/09/14 00:38:29;;;;;;;;;;;11.20;99.90;;;;;;5157596;27;20421;-43
2023/09/14 00:40:55;;;;;;;;;;;11.20;99.90;;;;;;5157591;27;19907;-42
2023/09/14 00:43:20;;;;;;;;;;;11.10;99.90;;;;;;5157494;27;19918;-42
2023/09/14 00:45:46;;;;;;;;;;;11.10;99.90;;;;;;5157652;27;20010;-42
2023/09/14 00:48:12;;;;;;;;;;;11.10;99.90;;;;;;5154409;27;19938;-43
2023/09/14 00:50:38;;;;;;;;;;;11.10;99.90;;;;;;5136620;27;20333;-45
2023/09/14 00:53:04;;;;;;;;;;;11.10;99.90;;;;;;5136569;27;19964;-41
2023/09/14 00:55:30;;;;;;;;;;;11.10;99.90;;;;;;5136606;27;20362;-42
2023/09/14 00:57:57;;;;;;;;;;;11.10;99.90;;;;;;5136591;27;19907;-43
2023/09/14 01:00:22;;;;;;;;;;;11.10;99.90;;;;;;5136634;27;19915;-42
2023/09/14 01:02:50;;;;;;;;;;;11.20;99.90;;;;;;5135720;27;20277;-43
2023/09/14 01:05:16;;;;;;;;;;;11.20;99.90;;;;;;5136465;27;19911;-41
2023/09/14 01:07:41;;;;;;;;;;;11.10;99.90;;;;;;5136324;27;19916;-45
2023/09/14 01:10:09;;;;;;;;;;;11.20;99.90;;;;;;5136260;27;19930;-43
2023/09/14 01:12:34;;;;;;;;;;;11.20;99.90;;;;;;5136384;27;19915;-42
2023/09/14 01:15:06;;;;;;;;;;;11.20;99.90;;;;;;5136173;27;19907;-43
2023/09/14 01:17:34;;;;;;;;;;;11.20;99.90;;;;;;5136273;27;19911;-43
2023/09/14 01:20:07;;;;;;;;;;;11.20;99.90;;;;;;5152885;27;19958;-42
2023/09/14 01:22:42;;;;;;;;;;;11.10;99.90;;;;;;5154531;27;19911;-41
2023/09/14 01:25:23;;;;;;;;;;;11.10;99.90;;;;;;5156642;27;19918;-42
2023/09/14 01:27:49;;;;;;;;;;;11.00;99.90;;;;;;5156468;27;19984;-42
2023/09/14 01:30:15;;;;;;;;;;;11.00;99.90;;;;;;5156601;27;20358;-42
2023/09/14 01:32:41;;;;;;;;;;;11.00;99.90;;;;;;5156363;27;19972;-41
2023/09/14 01:35:08;;;;;;;;;;;11.00;99.90;;;;;;5156476;27;19907;-42
2023/09/14 01:37:33;;;;;;;;;;;11.00;99.90;;;;;;5156532;27;20436;-42
2023/09/14 01:39:59;;;;;;;;;;;10.90;99.90;;;;;;5156426;27;19954;-43
2023/09/14 01:42:25;;;;;;;;;;;10.90;99.90;;;;;;5156340;27;19907;-45
2023/09/14 01:44:50;;;;;;;;;;;10.90;99.90;;;;;;5156333;27;19915;-43
2023/09/14 01:47:16;;;;;;;;;;;10.90;99.90;;;;;;5156102;27;20017;-41
2023/09/14 01:49:42;;;;;;;;;;;10.90;99.90;;;;;;5140681;27;19912;-43
2023/09/14 01:52:08;;;;;;;;;;;10.90;99.90;;;;;;5135431;27;20359;-42
2023/09/14 01:54:33;;;;;;;;;;;10.80;99.90;;;;;;5135480;27;20370;-41
2023/09/14 01:56:59;;;;;;;;;;;10.80;99.90;;;;;;5135292;27;19912;-41
2023/09/14 01:59:24;;;;;;;;;;;10.80;99.90;;;;;;5135393;27;19907;-42
2023/09/14 02:01:50;;;;;;;;;;;10.70;99.90;;;;;;5135318;27;20019;-43
2023/09/14 02:04:15;;;;;;;;;;;10.70;99.90;;;;;;5135178;27;19914;-42
2023/09/14 02:06:41;;;;;;;;;;;10.70;99.90;;;;;;5135129;27;19911;-43
2023/09/14 02:09:06;;;;;;;;;;;10.60;99.90;;;;;;5135044;27;19980;-41
2023/09/14 02:11:32;;;;;;;;;;;10.60;99.90;;;;;;5135033;27;19915;-43
2023/09/14 02:13:57;;;;;;;;;;;10.60;99.90;;;;;;5133880;27;19908;-42
2023/09/14 02:16:23;;;;;;;;;;;10.60;99.90;;;;;;5135707;27;19973;-42
2023/09/14 02:18:48;;;;;;;;;;;10.60;99.90;;;;;;5135112;27;19908;-40
2023/09/14 02:21:16;;;;;;;;;;;10.60;99.90;;;;;;5134852;27;19953;-41
2023/09/14 02:23:42;;;;;;;;;;;10.60;99.90;;;;;;5134908;27;19907;-41
2023/09/14 02:26:07;;;;;;;;;;;10.50;99.90;;;;;;5134686;27;19990;-43
2023/09/14 02:28:33;;;;;;;;;;;10.50;99.90;;;;;;5134741;27;20397;-42
2023/09/14 02:30:58;;;;;;;;;;;10.50;99.90;;;;;;5134522;27;19915;-42
2023/09/14 02:33:24;;;;;;;;;;;10.50;99.90;;;;;;5134578;27;20435;-41
2023/09/14 02:35:50;;;;;;;;;;;10.50;99.90;;;;;;5134474;27;19964;-46
2023/09/14 02:38:16;;;;;;;;;;;10.50;99.90;;;;;;5134510;27;19964;-44
2023/09/14 02:40:42;;;;;;;;;;;10.50;99.90;;;;;;5134534;27;19990;-44
2023/09/14 02:43:07;;;;;;;;;;;10.40;99.90;;;;;;5143114;27;20315;-41
2023/09/14 02:45:33;;;;;;;;;;;10.50;99.90;;;;;;5155181;27;19926;-42
2023/09/14 02:47:58;;;;;;;;;;;10.50;99.90;;;;;;5155129;27;19975;-43
2023/09/14 02:50:24;;;;;;;;;;;10.50;99.90;;;;;;5154933;27;19907;-43
2023/09/14 02:52:49;;;;;;;;;;;10.40;99.90;;;;;;5155068;27;20005;-42
2023/09/14 02:55:15;;;;;;;;;;;10.50;99.90;;;;;;5154921;27;19918;-42
2023/09/14 02:57:40;;;;;;;;;;;10.50;99.90;;;;;;5154943;27;19911;-43
2023/09/14 03:00:16;;;;;;;;;;;10.40;99.90;;;;;;5154812;27;19907;-43
2023/09/14 03:02:42;;;;;;;;;;;10.40;99.90;;;;;;5155032;27;19907;-43
2023/09/14 03:05:09;;;;;;;;;;;10.40;99.90;;;;;;5154348;27;19915;-44
2023/09/14 03:07:35;;;;;;;;;;;10.40;99.90;;;;;;5117412;27;19942;-43
2023/09/14 03:10:00;;;;;;;;;;;10.40;99.90;;;;;;5125407;27;20430;-42
2023/09/14 03:12:25;;;;;;;;;;;10.40;99.90;;;;;;5130629;27;19995;-44
2023/09/14 03:14:51;;;;;;;;;;;10.30;99.90;;;;;;5133009;27;19907;-43
2023/09/14 03:17:16;;;;;;;;;;;10.30;99.90;;;;;;5133201;27;19962;-44
2023/09/14 03:19:42;;;;;;;;;;;10.30;99.90;;;;;;5133044;27;19907;-43
2023/09/14 03:22:08;;;;;;;;;;;10.30;99.90;;;;;;5132953;27;19911;-42
2023/09/14 03:24:33;;;;;;;;;;;10.30;99.90;;;;;;5132691;27;19918;-45
2023/09/14 03:26:59;;;;;;;;;;;10.20;99.90;;;;;;5132873;27;19908;-42
2023/09/14 03:29:24;;;;;;;;;;;10.20;99.90;;;;;;5132945;27;19915;-43
2023/09/14 03:31:50;;;;;;;;;;;10.10;99.90;;;;;;5132725;28;20369;-43
2023/09/14 03:34:16;;;;;;;;;;;10.10;99.90;;;;;;5132828;27;19916;-43
2023/09/14 03:36:41;;;;;;;;;;;10.10;99.90;;;;;;5132823;28;19914;-43
2023/09/14 03:39:08;;;;;;;;;;;10.10;99.90;;;;;;5132852;28;19941;-42
2023/09/14 03:41:33;;;;;;;;;;;10.10;99.90;;;;;;5133084;28;19912;-41
2023/09/14 03:43:59;;;;;;;;;;;10.00;99.90;;;;;;5134422;27;19918;-43
2023/09/14 03:46:25;;;;;;;;;;;10.10;99.90;;;;;;5133054;28;19915;-43
2023/09/14 03:48:50;;;;;;;;;;;10.10;99.90;;;;;;5132851;28;19926;-41
2023/09/14 03:51:16;;;;;;;;;;;10.10;99.90;;;;;;5133135;28;20358;-44
2023/09/14 03:53:41;;;;;;;;;;;10.10;99.90;;;;;;5133523;28;20332;-43
2023/09/14 03:56:07;;;;;;;;;;;10.00;99.90;;;;;;5133573;28;19908;-43
2023/09/14 03:58:32;;;;;;;;;;;10.00;99.90;;;;;;5133498;28;19907;-43
2023/09/14 04:00:59;;;;;;;;;;;10.10;99.90;;;;;;5131148;28;19952;-43
2023/09/14 04:03:24;;;;;;;;;;;10.10;99.90;;;;;;5132232;28;19959;-42
2023/09/14 04:05:50;;;;;;;;;;;10.10;99.90;;;;;;5150196;27;19961;-41
2023/09/14 04:08:15;;;;;;;;;;;10.00;99.90;;;;;;5154262;27;20354;-43
2023/09/14 04:10:41;;;;;;;;;;;10.10;99.90;;;;;;5135407;27;19998;-43
2023/09/14 04:13:26;;;;;;;;;;;10.10;99.90;;;;;;5130983;28;20483;-43
2023/09/14 04:15:51;;;;;;;;;;;10.10;99.90;;;;;;5127279;28;20278;-46
2023/09/14 04:18:17;;;;;;;;;;;10.10;99.90;;;;;;5132013;28;19908;-43
2023/09/14 04:20:43;;;;;;;;;;;10.10;99.90;;;;;;5133231;28;20290;-42
2023/09/14 04:23:08;;;;;;;;;;;10.10;99.90;;;;;;5133177;28;19908;-42
2023/09/14 04:25:34;;;;;;;;;;;10.00;99.90;;;;;;5133381;28;19911;-42
2023/09/14 04:27:59;;;;;;;;;;;10.00;99.90;;;;;;5129458;28;19919;-44
2023/09/14 04:30:25;;;;;;;;;;;10.10;99.90;;;;;;5132922;28;19953;-43
2023/09/14 04:32:50;;;;;;;;;;;10.00;99.90;;;;;;5132958;28;19942;-43
2023/09/14 04:35:16;;;;;;;;;;;10.00;99.90;;;;;;5144092;27;20353;-43
2023/09/14 04:37:42;;;;;;;;;;;10.00;99.90;;;;;;5155774;27;20009;-42
2023/09/14 04:40:09;;;;;;;;;;;9.90;99.90;;;;;;5154479;27;20392;-43
2023/09/14 04:42:34;;;;;;;;;;;10.00;99.90;;;;;;5150725;27;19922;-44
2023/09/14 04:45:00;;;;;;;;;;;9.90;99.90;;;;;;5153831;27;19915;-42
2023/09/14 04:47:25;;;;;;;;;;;9.90;99.90;;;;;;5151949;27;19919;-42
2023/09/14 04:49:51;;;;;;;;;;;9.90;99.90;;;;;;5149151;27;19927;-42
2023/09/14 04:52:16;;;;;;;;;;;9.90;99.90;;;;;;5157338;27;20441;-43
2023/09/14 04:54:42;;;;;;;;;;;9.90;99.90;;;;;;5137562;27;19994;-44
2023/09/14 04:57:07;;;;;;;;;;;9.90;99.90;;;;;;5136265;27;19929;-41
2023/09/14 04:59:33;;;;;;;;;;;9.80;99.90;;;;;;5138192;27;21450;-42
2023/09/14 05:01:58;;;;;;;;;;;9.80;99.90;;;;;;5142399;27;19970;-42
2023/09/14 05:04:24;;;;;;;;;;;9.80;99.90;;;;;;5146236;27;19915;-42
2023/09/14 05:06:49;;;;;;;;;;;9.80;99.90;;;;;;5145621;27;19911;-42
2023/09/14 05:09:15;;;;;;;;;;;9.80;99.90;;;;;;5150991;27;19919;-42
2023/09/14 05:11:40;;;;;;;;;;;9.80;99.90;;;;;;5141013;27;19915;-42
2023/09/14 05:14:06;;;;;;;;;;;9.70;99.90;;;;;;5124714;27;19971;-44
2023/09/14 05:16:31;;;;;;;;;;;9.70;99.90;;;;;;5155397;27;19914;-42
2023/09/14 05:18:57;;;;;;;;;;;9.70;99.90;;;;;;5156848;27;19907;-43
2023/09/14 05:21:22;;;;;;;;;;;9.70;99.90;;;;;;5144857;27;19916;-43
2023/09/14 05:23:47;;;;;;;;;;;9.70;99.90;;;;;;5142494;27;19919;-44
2023/09/14 05:26:13;;;;;;;;;;;9.70;99.90;;;;;;5134576;27;20385;-42
2023/09/14 05:28:38;;;;;;;;;;;9.70;99.90;;;;;;5116956;27;19927;-44
2023/09/14 05:31:04;;;;;;;;;;;9.70;99.90;;;;;;5135372;27;19911;-48
2023/09/14 05:33:29;;;;;;;;;;;9.60;99.90;;;;;;5135941;27;19950;-42
2023/09/14 05:35:55;;;;;;;;;;;9.70;99.90;;;;;;5134372;27;20271;-42
2023/09/14 05:38:20;;;;;;;;;;;9.70;99.90;;;;;;5136862;27;20286;-43
2023/09/14 05:40:46;;;;;;;;;;;9.80;99.90;;;;;;5134538;27;19912;-41
2023/09/14 05:43:12;;;;;;;;;;;9.70;99.90;;;;;;5131474;27;20265;-43
2023/09/14 05:45:39;;;;;;;;;;;9.70;99.90;;;;;;5133786;27;19911;-45
2023/09/14 05:48:05;;;;;;;;;;;9.70;99.90;;;;;;5124053;27;20735;-43
2023/09/14 05:50:31;;;;;;;;;;;9.80;99.90;;;;;;5127323;27;19916;-43
2023/09/14 05:52:56;;;;;;;;;;;9.80;99.90;;;;;;5134096;27;19954;-43
2023/09/14 05:55:22;;;;;;;;;;;9.80;99.90;;;;;;5123983;27;20381;-43
2023/09/14 05:57:47;;;;;;;;;;;9.90;99.90;;;;;;5132944;27;19919;-43
2023/09/14 06:00:13;;;;;;;;;;;9.90;99.90;;;;;;5133984;27;20389;-42
2023/09/14 06:02:42;;;;;;;;;;;9.90;99.90;;;;;;5133012;27;19911;-42
2023/09/14 06:05:08;;;;;;;;;;;9.90;99.90;;;;;;5133852;27;19915;-46
2023/09/14 06:07:34;;;;;;;;;;;9.90;99.90;;;;;;5134558;27;20373;-44
2023/09/14 06:09:59;;;;;;;;;;;10.00;99.90;;;;;;5116653;27;19908;-42
2023/09/14 06:12:25;;;;;;;;;;;10.00;99.90;;;;;;5134087;27;19911;-43
2023/09/14 06:14:50;;;;;;;;;;;10.10;99.90;;;;;;5106747;28;19908;-43
2023/09/14 06:17:16;;;;;;;;;;;10.10;99.90;;;;;;5114137;28;20425;-44
2023/09/14 06:19:41;;;;;;;;;;;10.20;99.90;;;;;;5114384;28;20014;-43
2023/09/14 06:22:08;;;;;;;;;;;10.30;99.90;;;;;;5122374;27;19912;-43
2023/09/14 06:24:33;;;;;;;;;;;10.30;99.90;;;;;;5134383;27;19911;-43
2023/09/14 06:26:59;;;;;;;;;;;10.30;99.90;;;;;;5133737;27;20284;-43
2023/09/14 06:29:25;;;;;;;;;;;10.40;99.90;;;;;;5132867;27;19918;-42
2023/09/14 06:31:50;;;;;;;;;;;10.40;99.90;;;;;;5132903;27;20323;-43
2023/09/14 06:34:16;;;;;;;;;;;10.40;99.90;;;;;;5128006;27;19918;-43
2023/09/14 06:36:41;;;;;;;;;;;10.50;99.90;;;;;;5132505;27;19970;-43
2023/09/14 06:39:07;;;;;;;;;;;10.50;99.90;;;;;;5132848;27;19946;-43
2023/09/14 06:41:32;;;;;;;;;;;10.70;99.90;;;;;;5132971;27;20278;-45
2023/09/14 06:43:58;;;;;;;;;;;10.70;99.90;;;;;;5133327;27;19918;-42
2023/09/14 06:46:23;;;;;;;;;;;10.70;99.90;;;;;;5133203;27;20298;-42
2023/09/14 06:48:49;;;;;;;;;;;10.80;99.90;;;;;;5134104;27;19920;-43
2023/09/14 06:51:14;;;;;;;;;;;10.90;99.90;;;;;;5134325;27;19922;-43
2023/09/14 06:53:40;;;;;;;;;;;10.90;99.90;;;;;;5134127;27;19911;-44
2023/09/14 06:56:09;;;;;;;;;;;11.00;99.90;;;;;;5121054;27;20278;-44
2023/09/14 06:58:35;;;;;;;;;;;11.10;99.90;;;;;;5117581;27;19919;-43
2023/09/14 07:01:04;;;;;;;;;;;11.10;99.90;;;;;;5113968;27;19911;-43
2023/09/14 07:03:30;;;;;;;;;;;11.30;99.90;;;;;;5124191;27;19999;-42
2023/09/14 07:05:57;;;;;;;;;;;11.30;99.90;;;;;;5118936;27;20358;-42
2023/09/14 07:08:22;;;;;;;;;;;11.40;99.90;;;;;;5128173;27;19927;-43
2023/09/14 07:10:48;;;;;;;;;;;11.50;99.90;;;;;;5132201;27;19911;-43
2023/09/14 07:13:14;;;;;;;;;;;11.50;99.90;;;;;;5139524;27;19911;-45
2023/09/14 07:15:40;;;;;;;;;;;11.60;99.90;;;;;;5145118;27;19993;-44
2023/09/14 07:18:05;;;;;;;;;;;11.70;99.90;;;;;;5154487;27;19907;-46
2023/09/14 07:20:31;;;;;;;;;;;11.80;99.90;;;;;;5134711;27;21645;-43
2023/09/14 07:22:57;;;;;;;;;;;11.90;99.90;;;;;;5130752;27;19912;-43
2023/09/14 07:25:23;;;;;;;;;;;11.90;99.90;;;;;;5151185;27;19911;-43
2023/09/14 07:27:48;;;;;;;;;;;12.00;99.90;;;;;;5153696;27;20442;-43
2023/09/14 07:30:14;;;;;;;;;;;12.10;99.90;;;;;;5148814;27;19916;-44
2023/09/14 07:32:40;;;;;;;;;;;12.20;99.90;;;;;;5104347;28;20298;-42
2023/09/14 07:35:07;;;;;;;;;;;12.30;99.90;;;;;;5112982;28;19908;-42
2023/09/14 07:37:32;;;;;;;;;;;12.40;99.90;;;;;;5115356;28;19918;-43
2023/09/14 07:39:58;;;;;;;;;;;12.50;99.90;;;;;;5119811;28;19911;-42
2023/09/14 07:42:23;;;;;;;;;;;12.60;99.90;;;;;;5120542;27;20339;-42
2023/09/14 07:44:49;;;;;;;;;;;12.70;99.90;;;;;;5148645;27;19986;-44
2023/09/14 07:47:14;;;;;;;;;;;12.80;99.90;;;;;;5134255;28;20332;-44
2023/09/14 07:49:43;;;;;;;;;;;13.00;99.90;;;;;;5127711;28;19916;-42
2023/09/14 07:52:08;;;;;;;;;;;13.10;99.90;;;;;;5130299;27;19911;-43
2023/09/14 07:54:34;;;;;;;;;;;13.20;99.90;;;;;;5128167;28;19922;-45
2023/09/14 07:57:00;;;;;;;;;;;13.30;99.90;;;;;;5131650;28;20339;-44
2023/09/14 07:59:27;;;;;;;;;;;13.40;99.90;;;;;;5121382;27;20015;-43
2023/09/14 08:01:52;;;;;;;;;;;13.50;99.90;;;;;;5114325;27;20285;-43
2023/09/14 08:04:19;;;;;;;;;;;13.60;99.90;;;;;;5131339;27;19912;-42
2023/09/14 08:06:45;;;;;;;;;;;13.70;99.90;;;;;;5115099;28;19918;-42
2023/09/14 08:09:11;;;;;;;;;;;13.80;99.90;;;;;;5132622;27;20451;-43
2023/09/14 08:11:37;;;;;;;;;;;13.80;99.90;;;;;;5124709;27;20056;-43
2023/09/14 08:14:03;;;;;;;;;;;13.90;99.90;;;;;;5124573;27;19915;-42
2023/09/14 08:16:32;;;;;;;;;;;14.00;99.90;;;;;;5132343;27;19919;-43
2023/09/14 08:18:58;;;;;;;;;;;14.10;99.90;;;;;;5133850;27;19911;-43
2023/09/14 08:21:25;;;;;;;;;;;14.30;99.90;;;;;;5130252;27;19976;-43
2023/09/14 08:23:53;;;;;;;;;;;14.30;99.90;;;;;;5142534;27;20354;-44
2023/09/14 08:26:19;;;;;;;;;;;14.40;99.90;;;;;;5135121;27;19915;-42
2023/09/14 08:28:45;;;;;;;;;;;14.50;99.90;;;;;;5134991;27;20023;-42
2023/09/14 08:31:10;;;;;;;;;;;14.60;99.90;;;;;;5136157;27;19986;-43
2023/09/14 08:33:36;;;;;;;;;;;14.60;99.90;;;;;;5137197;27;19995;-47
2023/09/14 08:36:01;;;;;;;;;;;14.70;99.90;;;;;;5130215;27;19912;-42
2023/09/14 08:38:27;;;;;;;;;;;14.80;99.90;;;;;;5136920;27;19911;-43
2023/09/14 08:40:54;;;;;;;;;;;14.90;99.90;;;;;;5122844;27;19908;-43
2023/09/14 08:43:20;;;;;;;;;;;15.00;99.90;;;;;;5130925;27;19911;-42
2023/09/14 08:45:46;;;;;;;;;;;15.10;99.90;;;;;;5128477;27;19911;-42
2023/09/14 08:48:13;;;;;;;;;;;15.20;99.90;;;;;;5122605;27;19920;-43
2023/09/14 08:50:40;;;;;;;;;;;15.30;99.90;;;;;;5133052;27;20389;-44
2023/09/14 08:53:06;;;;;;;;;;;15.40;99.90;;;;;;5122441;27;19912;-43
2023/09/14 08:55:34;;;;;;;;;;;15.50;99.90;;;;;;5124296;27;19968;-44
2023/09/14 08:58:00;;;;;;;;;;;15.60;99.90;;;;;;5141859;27;19907;-44
2023/09/14 09:00:28;;;;;;;;;;;15.60;99.90;;;;;;5140406;27;19911;-42
2023/09/14 09:02:54;;;;;;;;;;;15.80;99.90;;;;;;5140975;27;19990;-43
2023/09/14 09:05:20;;;;;;;;;;;15.80;99.90;;;;;;5143888;27;19915;-42
2023/09/14 09:07:50;;;;;;;;;;;16.00;99.90;;;;;;5136415;27;19911;-44
2023/09/14 09:10:20;;;;;;;;;;;16.00;99.90;;;;;;5135569;27;19919;-47
2023/09/14 09:12:46;;;;;;;;;;;16.00;99.90;;;;;;5136106;27;19961;-41
2023/09/14 09:15:13;;;;;;;;;;;16.10;99.90;;;;;;5133905;27;20041;-45
2023/09/14 09:17:41;;;;;;;;;;;16.20;99.90;;;;;;5133048;27;19980;-44
2023/09/14 09:20:14;;;;;;;;;;;16.20;99.90;;;;;;5129502;27;20001;-43
2023/09/14 09:22:41;;;;;;;;;;;16.20;99.90;;;;;;5131245;27;19912;-43
2023/09/14 09:25:06;;;;;;;;;;;16.30;99.90;;;;;;5121509;27;19911;-43
2023/09/14 09:27:32;;;;;;;;;;;16.40;99.90;;;;;;5123219;27;19927;-42
2023/09/14 09:29:58;;;;;;;;;;;16.50;99.90;;;;;;5123168;27;19923;-43
2023/09/14 09:32:23;;;;;;;;;;;16.60;99.90;;;;;;5136086;27;19919;-42
2023/09/14 09:34:49;;;;;;;;;;;16.60;99.90;;;;;;5125702;27;19930;-44
2023/09/14 09:37:15;;;;;;;;;;;16.70;99.90;;;;;;5127701;27;19923;-43
2023/09/14 09:39:41;;;;;;;;;;;16.80;99.90;;;;;;5128489;27;19994;-43
2023/09/14 09:42:08;;;;;;;;;;;16.90;99.90;;;;;;5135871;27;19918;-44
2023/09/14 09:44:34;;;;;;;;;;;16.90;99.90;;;;;;5135843;27;19915;-42
2023/09/14 09:46:59;;;;;;;;;;;17.00;99.90;;;;;;5131482;27;20286;-43
2023/09/14 09:49:28;;;;;;;;;;;17.00;99.90;;;;;;5118946;27;19919;-43
2023/09/14 09:51:53;;;;;;;;;;;17.00;99.90;;;;;;5123811;27;20358;-42
2023/09/14 09:54:20;;;;;;;;;;;17.00;99.90;;;;;;5130033;27;19981;-43
2023/09/14 09:56:45;;;;;;;;;;;17.00;99.90;;;;;;5115473;27;20311;-44
2023/09/14 09:59:13;;;;;;;;;;;17.10;99.90;;;;;;5125841;27;19955;-44
2023/09/14 10:01:40;;;;;;;;;;;17.20;99.90;;;;;;5126041;27;19915;-43
2023/09/14 10:04:12;;;;;;;;;;;17.30;99.90;;;;;;5119699;27;19919;-43
2023/09/14 10:06:38;;;;;;;;;;;17.40;99.90;;;;;;5134823;27;20343;-43
2023/09/14 10:09:07;;;;;;;;;;;17.40;99.90;;;;;;5132161;27;20034;-43
2023/09/14 10:11:33;;;;;;;;;;;17.40;99.90;;;;;;5123644;27;19907;-43
2023/09/14 10:14:01;;;;;;;;;;;17.40;99.90;;;;;;5134876;27;19915;-42
2023/09/14 10:16:27;;;;;;;;;;;17.50;99.90;;;;;;5129765;27;19938;-45
2023/09/14 10:18:56;;;;;;;;;;;17.60;99.90;;;;;;5134654;27;19991;-43
2023/09/14 10:21:22;;;;;;;;;;;17.70;99.90;;;;;;5134793;27;19911;-42
2023/09/14 10:23:48;;;;;;;;;;;17.80;99.90;;;;;;5135155;27;20304;-43
2023/09/14 10:26:13;;;;;;;;;;;17.80;99.90;;;;;;5134412;27;19993;-44
2023/09/14 10:28:40;;;;;;;;;;;17.90;99.90;;;;;;5134940;27;20000;-44
2023/09/14 10:31:06;;;;;;;;;;;18.00;99.90;;;;;;5133880;27;19915;-42
2023/09/14 10:33:32;;;;;;;;;;;18.00;99.90;;;;;;5135165;27;20295;-43
2023/09/14 10:35:59;;;;;;;;;;;18.10;99.90;;;;;;5141103;27;19911;-43
2023/09/14 10:38:25;;;;;;;;;;;18.20;99.90;;;;;;5134763;27;19911;-42
2023/09/14 10:40:54;;;;;;;;;;;18.30;99.90;;;;;;5134767;27;20338;-43
2023/09/14 10:43:22;;;;;;;;;;;18.30;99.90;;;;;;5138351;27;20137;-43
2023/09/14 10:45:50;;;;;;;;;;;18.40;99.90;;;;;;5142136;27;19911;-43
2023/09/14 10:48:18;;;;;;;;;;;18.50;99.90;;;;;;5132200;27;19923;-43
2023/09/14 10:50:44;;;;;;;;;;;18.60;99.90;;;;;;5142829;27;19964;-43
2023/09/14 10:53:09;;;;;;;;;;;18.60;99.90;;;;;;5115877;27;19908;-44
2023/09/14 10:55:38;;;;;;;;;;;18.70;99.90;;;;;;5119248;27;19923;-43
2023/09/14 10:58:04;;;;;;;;;;;18.80;99.90;;;;;;5134270;27;19975;-44
2023/09/14 11:00:52;;;;;;;;;;;18.90;99.90;;;;;;5134141;27;20323;-43
2023/09/14 11:03:18;;;;;;;;;;;19.00;99.90;;;;;;5132997;27;19912;-43
2023/09/14 11:05:46;;;;;;;;;;;18.90;99.90;;;;;;5140035;27;19963;-41
2023/09/14 11:08:12;;;;;;;;;;;18.80;99.90;;;;;;5154455;27;19926;-48
2023/09/14 11:10:38;;;;;;;;;;;18.90;99.90;;;;;;5139707;27;19908;-42
2023/09/14 11:13:19;;;;;;;;;;;18.90;99.90;;;;;;5115060;27;19916;-42
2023/09/14 11:15:53;;;;;;;;;;;18.80;99.90;;;;;;5143640;27;19918;-42
2023/09/14 11:18:33;;;;;;;;;;;18.70;99.90;;;;;;5129218;27;19911;-42
2023/09/14 11:20:59;;;;;;;;;;;18.60;99.90;;;;;;5132724;27;19911;-43
2023/09/14 11:23:32;;;;;;;;;;;18.60;99.90;;;;;;5133685;27;20010;-43
2023/09/14 11:25:57;;;;;;;;;;;18.60;99.90;;;;;;5153858;27;20254;-42
2023/09/14 11:28:23;;;;;;;;;;;18.60;99.90;;;;;;5145235;27;19923;-44
2023/09/14 11:30:48;;;;;;;;;;;18.80;99.90;;;;;;5133324;27;19912;-42
2023/09/14 11:33:15;;;;;;;;;;;19.00;99.90;;;;;;5132189;27;20400;-43
2023/09/14 11:35:45;;;;;;;;;;;19.30;99.90;;;;;;5150108;27;20487;-43
2023/09/14 11:38:16;;;;;;;;;;;19.50;99.90;;;;;;5149059;27;19998;-42
2023/09/14 11:40:42;;;;;;;;;;;19.60;99.90;;;;;;5133037;28;19911;-41
2023/09/14 11:43:08;;;;;;;;;;;19.90;99.90;;;;;;5132434;28;19918;-43
2023/09/14 11:45:34;;;;;;;;;;;20.10;99.90;;;;;;5149556;27;19911;-45
2023/09/14 11:48:00;;;;;;;;;;;20.20;99.90;;;;;;5141181;27;19920;-41
2023/09/14 11:50:27;;;;;;;;;;;20.40;99.90;;;;;;5137075;27;20387;-42
2023/09/14 11:52:54;;;;;;;;;;;20.50;99.90;;;;;;5132981;27;20365;-43
2023/09/14 11:55:20;;;;;;;;;;;20.60;99.90;;;;;;5138358;27;19911;-42
2023/09/14 11:57:46;;;;;;;;;;;20.80;99.90;;;;;;5133010;27;19961;-43
2023/09/14 12:00:12;;;;;;;;;;;20.90;99.90;;;;;;5137449;27;19959;-43
2023/09/14 12:02:38;;;;;;;;;;;20.90;99.90;;;;;;5137578;27;19907;-43
2023/09/14 12:05:03;;;;;;;;;;;20.90;99.90;;;;;;5132141;27;19912;-43
2023/09/14 12:07:29;;;;;;;;;;;21.00;99.90;;;;;;5119080;27;19922;-42
2023/09/14 12:09:55;;;;;;;;;;;21.10;99.90;;;;;;5137570;27;19922;-42
2023/09/14 12:12:26;;;;;;;;;;;21.20;99.90;;;;;;5137567;27;19907;-41
2023/09/14 12:14:52;;;;;;;;;;;21.10;99.90;;;;;;5131849;27;19912;-43
2023/09/14 12:17:27;;;;;;;;;;;21.10;99.90;;;;;;5126731;27;19920;-43
2023/09/14 12:19:58;;;;;;;;;;;21.10;99.90;;;;;;5137313;27;19915;-43
2023/09/14 12:22:25;;;;;;;;;;;20.90;98.00;;;;;;5137633;27;20022;-43
2023/09/14 12:24:51;;;;;;;;;;;20.90;99.90;;;;;;5137661;27;19908;-41
2023/09/14 12:27:20;;;;;;;;;;;20.80;99.90;;;;;;5137986;27;19922;-42
2023/09/14 12:29:46;;;;;;;;;;;20.90;99.90;;;;;;5137379;27;20139;-43
2023/09/14 12:32:12;;;;;;;;;;;20.90;99.90;;;;;;5136690;27;19919;-42
2023/09/14 12:34:38;;;;;;;;;;;20.80;99.90;;;;;;5137495;27;19956;-41
2023/09/14 12:37:04;;;;;;;;;;;20.80;99.90;;;;;;5135709;27;20377;-43
2023/09/14 12:39:29;;;;;;;;;;;20.80;99.90;;;;;;5137117;27;20346;-43
2023/09/14 12:41:57;;;;;;;;;;;20.90;99.90;;;;;;5128733;27;20337;-44
2023/09/14 12:44:23;;;;;;;;;;;21.00;99.90;;;;;;5137047;27;20475;-42
2023/09/14 12:46:52;;;;;;;;;;;21.10;99.90;;;;;;5136281;27;19920;-42
2023/09/14 12:49:17;;;;;;;;;;;21.00;99.90;;;;;;5136707;27;20262;-43
2023/09/14 12:51:50;;;;;;;;;;;20.90;99.90;;;;;;5136729;27;20356;-43
2023/09/14 12:54:21;;;;;;;;;;;20.70;99.90;;;;;;5138448;27;19916;-44
2023/09/14 12:56:47;;;;;;;;;;;20.50;99.90;;;;;;5136844;27;19915;-43
2023/09/14 12:59:12;;;;;;;;;;;20.40;99.90;;;;;;5124718;27;20006;-46
2023/09/14 13:01:39;;;;;;;;;;;20.30;99.90;;;;;;5118471;27;19915;-43
2023/09/14 13:04:05;;;;;;;;;;;20.30;99.90;;;;;;5136525;27;19908;-42
2023/09/14 13:06:32;;;;;;;;;;;20.60;99.90;;;;;;5136284;27;19916;-42
2023/09/14 13:08:57;;;;;;;;;;;21.00;99.90;;;;;;5136253;27;20039;-43
2023/09/14 13:11:24;;;;;;;;;;;21.60;99.90;;;;;;5116332;27;20002;-43
2023/09/14 13:13:50;;;;;;;;;;;21.90;99.90;;;;;;5136808;27;19911;-43
2023/09/14 13:16:18;;;;;;;;;;;22.00;99.90;;;;;;5136483;27;19923;-44
2023/09/14 13:18:44;;;;;;;;;;;22.30;99.90;;;;;;5153560;27;20369;-43
2023/09/14 13:21:10;;;;;;;;;;;22.60;99.40;;;;;;5157108;27;20014;-44
2023/09/14 13:23:35;;;;;;;;;;;23.00;99.90;;;;;;5157266;27;19981;-43
2023/09/14 13:26:01;;;;;;;;;;;23.20;99.90;;;;;;5157238;27;19915;-44
2023/09/14 13:28:27;;;;;;;;;;;23.30;99.90;;;;;;5154645;27;19970;-42
2023/09/14 13:30:52;;;;;;;;;;;23.50;98.60;;;;;;5157329;27;19954;-42
2023/09/14 13:33:19;;;;;;;;;;;23.70;99.30;;;;;;5143773;27;19920;-44
2023/09/14 13:35:46;;;;;;;;;;;23.70;98.40;;;;;;5146031;27;19908;-46
2023/09/14 13:38:12;;;;;;;;;;;23.10;97.90;;;;;;5121393;27;20350;-44
2023/09/14 13:40:37;;;;;;;;;;;22.90;97.60;;;;;;5124194;27;19908;-42
2023/09/14 13:43:03;;;;;;;;;;;22.40;98.90;;;;;;5127144;27;19912;-44
2023/09/14 13:45:29;;;;;;;;;;;22.10;99.90;;;;;;5136196;27;19914;-42
2023/09/14 13:47:55;;;;;;;;;;;21.80;99.90;;;;;;5135959;27;19965;-44
2023/09/14 13:50:21;;;;;;;;;;;21.90;99.90;;;;;;5133484;27;19919;-43
2023/09/14 13:52:47;;;;;;;;;;;22.40;99.90;;;;;;5125649;27;19918;-42
2023/09/14 13:55:13;;;;;;;;;;;22.90;99.90;;;;;;5142180;27;20374;-43
2023/09/14 13:57:39;;;;;;;;;;;23.30;99.90;;;;;;5128892;27;19922;-45
2023/09/14 14:00:07;;;;;;;;;;;23.60;98.70;;;;;;5114981;28;19908;-43
2023/09/14 14:02:34;;;;;;;;;;;23.70;97.90;;;;;;5119333;27;20254;-45
2023/09/14 14:05:00;;;;;;;;;;;23.80;98.20;;;;;;5131142;27;19912;-44
2023/09/14 14:07:26;;;;;;;;;;;24.10;97.20;;;;;;5134094;27;19918;-44
2023/09/14 14:09:51;;;;;;;;;;;24.50;95.50;;;;;;5135350;27;19911;-42
2023/09/14 14:12:16;;;;;;;;;;;24.90;95.30;;;;;;5137554;27;20006;-43
2023/09/14 14:14:42;;;;;;;;;;;25.30;95.80;;;;;;5139123;27;19918;-44